Time;durP1;ratioP1;P1;durP2;ratioP2;P2;SDS_P1;SDS_P2;PMS_P1;PMS_P2;Temp;Humidity;BMP_temperature;BMP_pressure;BME280_temperature;BME280_humidity;BME280_pressure;Samples;Min_cycle;Max_cycle;Signal;HPM_P1;HPM_P2
2022/03/20 00:00:37;;;;;;;;;13.25;9.00;;;;;-146.25;100.00;57879.81;5074223;28;45394;-71
2022/03/20 00:03:07;;;;;;;;;10.75;10.00;;;;;-146.25;100.00;57879.81;5057683;28;45518;-71
2022/03/20 00:05:38;;;;;;;;;11.75;10.00;;;;;-146.25;100.00;57879.81;5058825;28;45301;-71
2022/03/20 00:08:11;;;;;;;;;11.25;10.25;;;;;-146.25;100.00;57879.81;5057777;28;46046;-71
2022/03/20 00:10:38;;;;;;;;;14.00;12.00;;;;;-146.25;100.00;57879.81;5059362;28;45189;-71
2022/03/20 00:13:07;;;;;;;;;9.00;7.00;;;;;-146.25;100.00;57879.81;5057951;28;46637;-71
2022/03/20 00:15:32;;;;;;;;;9.25;8.75;;;;;-146.25;100.00;57879.81;5057792;28;45332;-71
2022/03/20 00:17:58;;;;;;;;;9.75;9.75;;;;;-146.25;100.00;57879.81;5057979;28;45836;-71
2022/03/20 00:20:23;;;;;;;;;11.75;8.50;;;;;-146.25;100.00;57879.81;5057750;28;45612;-71
2022/03/20 00:22:49;;;;;;;;;13.00;13.00;;;;;-146.25;100.00;57879.81;5057328;28;46898;-72
2022/03/20 00:25:14;;;;;;;;;13.00;11.75;;;;;-146.25;100.00;57879.81;5057761;28;46075;-71
2022/03/20 00:27:40;;;;;;;;;11.00;9.50;;;;;-146.25;100.00;57879.81;5058325;28;46045;-71
2022/03/20 00:30:06;;;;;;;;;13.25;12.00;;;;;-146.25;100.00;57879.81;5074017;28;45575;-72
2022/03/20 00:32:31;;;;;;;;;12.75;11.75;;;;;-146.25;100.00;57879.81;5057473;28;45469;-71
2022/03/20 00:34:59;;;;;;;;;12.00;10.25;;;;;-146.25;100.00;57879.81;5057967;28;45525;-71
2022/03/20 00:37:28;;;;;;;;;15.00;13.00;;;;;-146.25;100.00;57879.81;5073879;27;45348;-71
2022/03/20 00:39:54;;;;;;;;;12.75;12.00;;;;;-146.25;100.00;57879.81;5058277;28;45438;-71
2022/03/20 00:42:20;;;;;;;;;12.00;11.50;;;;;-146.25;100.00;57879.81;5058425;28;45478;-71
2022/03/20 00:44:45;;;;;;;;;10.50;9.00;;;;;-146.25;100.00;57879.81;5058392;28;45454;-71
2022/03/20 00:47:13;;;;;;;;;10.50;9.00;;;;;-146.25;100.00;57879.81;5058519;28;45347;-71
2022/03/20 00:49:39;;;;;;;;;13.00;11.25;;;;;-146.25;100.00;57879.81;5059199;28;45378;-71
2022/03/20 00:52:06;;;;;;;;;14.50;13.00;;;;;-146.25;100.00;57879.81;5058725;28;45650;-71
2022/03/20 00:54:32;;;;;;;;;11.75;9.75;;;;;-146.25;100.00;57879.81;5058149;28;45522;-71
2022/03/20 00:56:58;;;;;;;;;13.00;12.00;;;;;-146.25;100.00;57879.81;5057956;28;45741;-71
2022/03/20 00:59:24;;;;;;;;;14.25;12.50;;;;;-146.25;100.00;57879.81;5057216;28;45524;-71
2022/03/20 01:01:49;;;;;;;;;12.00;11.25;;;;;-146.25;100.00;57879.81;5057371;28;46650;-71
2022/03/20 01:04:16;;;;;;;;;15.25;13.00;;;;;-146.25;100.00;57879.81;5057453;28;45460;-73
2022/03/20 01:06:42;;;;;;;;;14.00;12.50;;;;;-146.25;100.00;57879.81;5058189;28;45578;-71
2022/03/20 01:09:08;;;;;;;;;12.50;12.00;;;;;-146.25;100.00;57879.81;5056347;28;45351;-71
2022/03/20 01:11:34;;;;;;;;;13.25;9.50;;;;;-146.25;100.00;57879.81;5057583;28;46107;-71
2022/03/20 01:14:00;;;;;;;;;13.00;10.50;;;;;-146.25;100.00;57879.81;5057920;28;45692;-71
2022/03/20 01:16:26;;;;;;;;;13.50;11.25;;;;;-146.25;100.00;57879.81;5057703;28;45324;-71
2022/03/20 01:18:51;;;;;;;;;13.25;12.00;;;;;-146.25;100.00;57879.81;5056587;28;45398;-71
2022/03/20 01:21:17;;;;;;;;;13.75;12.25;;;;;-146.25;100.00;57879.81;5057094;28;45929;-71
2022/03/20 01:23:42;;;;;;;;;12.00;9.25;;;;;-146.25;100.00;57879.81;5057285;28;45480;-71
2022/03/20 01:26:11;;;;;;;;;13.25;12.25;;;;;-146.25;100.00;57879.81;5057406;28;45524;-71
2022/03/20 01:28:36;;;;;;;;;10.75;10.50;;;;;-146.25;100.00;57879.81;5057513;28;45357;-70
2022/03/20 01:31:02;;;;;;;;;15.75;13.75;;;;;-146.25;100.00;57879.81;5056907;28;45345;-70
2022/03/20 01:33:27;;;;;;;;;13.25;10.25;;;;;-146.25;100.00;57879.81;5056868;28;45223;-71
2022/03/20 01:35:53;;;;;;;;;12.75;11.25;;;;;-146.25;100.00;57879.81;5056843;28;45516;-72
2022/03/20 01:38:20;;;;;;;;;11.00;11.00;;;;;-146.25;100.00;57879.81;5057637;28;45591;-71
2022/03/20 01:40:47;;;;;;;;;14.25;12.75;;;;;-146.25;100.00;57879.81;5057289;28;46190;-71
2022/03/20 01:43:13;;;;;;;;;13.75;12.50;;;;;-146.25;100.00;57879.81;5057926;28;45528;-71
2022/03/20 01:45:39;;;;;;;;;12.50;10.75;;;;;-146.25;100.00;57879.81;5058132;28;45472;-71
2022/03/20 01:48:04;;;;;;;;;9.50;9.25;;;;;-146.25;100.00;57879.81;5058400;28;45353;-71
2022/03/20 01:50:32;;;;;;;;;9.50;8.50;;;;;-146.25;100.00;57879.81;5057288;28;45558;-72
2022/03/20 01:52:58;;;;;;;;;11.50;10.25;;;;;-146.25;100.00;57879.81;5057678;28;45368;-71
2022/03/20 01:55:24;;;;;;;;;12.25;11.00;;;;;-146.25;100.00;57879.81;5072932;28;45500;-71
2022/03/20 01:57:54;;;;;;;;;8.75;7.75;;;;;-146.25;100.00;57879.81;5057422;28;45330;-71
2022/03/20 02:00:21;;;;;;;;;10.25;9.25;;;;;-146.25;100.00;57879.81;5056673;28;45432;-71
2022/03/20 02:02:46;;;;;;;;;12.75;11.25;;;;;-146.25;100.00;57879.81;5056110;28;45341;-71
2022/03/20 02:05:13;;;;;;;;;14.50;13.75;;;;;-146.25;100.00;57879.81;5056809;28;47330;-71
2022/03/20 02:07:40;;;;;;;;;12.50;12.00;;;;;-146.25;100.00;57879.81;5057589;28;45492;-71
2022/03/20 02:10:07;;;;;;;;;15.00;10.25;;;;;-146.25;100.00;57879.81;5057300;28;45690;-71
2022/03/20 02:12:35;;;;;;;;;10.25;9.75;;;;;-146.25;100.00;57879.81;5056260;28;45341;-71
2022/03/20 02:15:02;;;;;;;;;10.50;9.25;;;;;-146.25;100.00;57879.81;5056634;28;45479;-70
2022/03/20 02:17:30;;;;;;;;;11.25;10.25;;;;;-146.25;100.00;57879.81;5056903;28;45561;-70
2022/03/20 02:19:57;;;;;;;;;10.75;10.00;;;;;-146.25;100.00;57879.81;5056431;28;45472;-71
2022/03/20 02:22:24;;;;;;;;;11.25;10.00;;;;;-146.25;100.00;57879.81;5055868;28;45480;-71
2022/03/20 02:24:51;;;;;;;;;10.25;9.50;;;;;-146.25;100.00;57879.81;5056340;28;45619;-71
2022/03/20 02:27:20;;;;;;;;;11.00;10.00;;;;;-146.25;100.00;57879.81;5056770;28;45295;-72
2022/03/20 02:29:56;;;;;;;;;10.00;9.50;;;;;-146.25;100.00;57879.81;5055784;28;45385;-71
2022/03/20 02:32:24;;;;;;;;;11.00;11.00;;;;;-146.25;100.00;57879.81;5068104;28;45453;-71
2022/03/20 02:34:50;;;;;;;;;11.00;10.00;;;;;-146.25;100.00;57879.81;5046601;28;45398;-71
2022/03/20 02:37:21;;;;;;;;;10.00;9.75;;;;;-146.25;100.00;57879.81;5056645;28;45541;-71
2022/03/20 02:39:49;;;;;;;;;12.25;11.00;;;;;-146.25;100.00;57879.81;5055629;28;45819;-71
2022/03/20 02:42:18;;;;;;;;;12.75;11.50;;;;;-146.25;100.00;57879.81;5056362;28;45450;-71
2022/03/20 02:44:59;;;;;;;;;12.50;11.00;;;;;-146.25;100.00;57879.81;5055389;28;45499;-71
2022/03/20 02:47:27;;;;;;;;;13.25;11.25;;;;;-146.25;100.00;57879.81;5057265;28;45328;-71
2022/03/20 02:50:04;;;;;;;;;11.00;9.25;;;;;-146.25;100.00;57879.81;5057086;28;46225;-71
2022/03/20 02:52:54;;;;;;;;;10.75;9.25;;;;;-146.25;100.00;57879.81;5056883;28;45445;-71
2022/03/20 02:55:22;;;;;;;;;15.00;11.50;;;;;-146.25;100.00;57879.81;5050535;28;45353;-71
2022/03/20 02:57:49;;;;;;;;;11.00;10.50;;;;;-146.25;100.00;57879.81;5072917;28;45641;-71
2022/03/20 03:00:21;;;;;;;;;11.00;10.75;;;;;-146.25;100.00;57879.81;5056664;28;45749;-71
2022/03/20 03:02:48;;;;;;;;;9.00;8.50;;;;;-146.25;100.00;57879.81;5055150;28;45590;-71
2022/03/20 03:05:16;;;;;;;;;10.00;9.00;;;;;-146.25;100.00;57879.81;5057362;28;45479;-72
2022/03/20 03:13:14;;;;;;;;;10.00;9.50;;;;;-146.25;100.00;57879.81;5056902;28;45411;-71
2022/03/20 03:15:40;;;;;;;;;10.25;9.75;;;;;-146.25;100.00;57879.81;5056926;28;45354;-72
2022/03/20 03:18:06;;;;;;;;;11.00;10.25;;;;;-146.25;100.00;57879.81;5056854;28;45497;-72
2022/03/20 03:20:32;;;;;;;;;8.00;8.00;;;;;-146.25;100.00;57879.81;5056408;28;45465;-71
2022/03/20 03:22:59;;;;;;;;;12.75;11.00;;;;;-146.25;100.00;57879.81;5056789;28;45354;-72
2022/03/20 03:25:24;;;;;;;;;9.50;9.00;;;;;-146.25;100.00;57879.81;5056765;28;45322;-72
2022/03/20 03:27:51;;;;;;;;;9.75;9.75;;;;;-146.25;100.00;57879.81;5055209;28;45614;-73
2022/03/20 03:30:17;;;;;;;;;11.00;9.00;;;;;-146.25;100.00;57879.81;5056447;28;45472;-71
2022/03/20 03:32:43;;;;;;;;;10.00;9.00;;;;;-146.25;100.00;57879.81;5056339;28;45251;-71
2022/03/20 03:37:55;;;;;;;;;10.75;10.00;;;;;-146.25;100.00;57879.81;5056623;28;45224;-71
2022/03/20 03:40:21;;;;;;;;;10.00;9.50;;;;;-146.25;100.00;57879.81;5056904;28;45770;-71
2022/03/20 03:42:47;;;;;;;;;9.75;9.00;;;;;-146.25;100.00;57879.81;5059775;28;45509;-72
2022/03/20 03:45:13;;;;;;;;;14.00;11.00;;;;;-146.25;100.00;57879.81;5060100;28;45487;-71
2022/03/20 03:47:40;;;;;;;;;9.75;9.50;;;;;-146.25;100.00;57879.81;5059948;28;45474;-71
2022/03/20 03:50:07;;;;;;;;;9.00;9.00;;;;;-146.25;100.00;57879.81;5058011;28;46957;-71
2022/03/20 03:52:33;;;;;;;;;10.50;10.00;;;;;-146.25;100.00;57879.81;5059662;28;45366;-71
2022/03/20 03:54:58;;;;;;;;;8.00;7.50;;;;;-146.25;100.00;57879.81;5075368;28;45346;-72
2022/03/20 03:57:24;;;;;;;;;9.00;8.67;;;;;-146.25;100.00;57879.81;5060052;28;45342;-72
2022/03/20 03:59:49;;;;;;;;;9.67;9.00;;;;;-146.25;100.00;57879.81;5058999;28;45381;-71
2022/03/20 04:02:15;;;;;;;;;9.67;8.33;;;;;-146.25;100.00;57879.81;5072485;28;45381;-71
2022/03/20 04:04:45;;;;;;;;;9.67;9.00;;;;;-146.25;100.00;57879.81;5059412;28;45250;-71
2022/03/20 04:07:12;;;;;;;;;11.33;9.33;;;;;-146.25;100.00;57879.81;5075389;27;45521;-71
2022/03/20 04:09:38;;;;;;;;;8.67;8.67;;;;;-146.25;100.00;57879.81;5058010;28;46703;-71
2022/03/20 04:12:05;;;;;;;;;7.25;7.25;;;;;-146.25;100.00;57879.81;5059332;28;45486;-71
2022/03/20 04:14:32;;;;;;;;;12.67;9.00;;;;;-146.25;100.00;57879.81;5059465;28;45481;-71
2022/03/20 04:16:58;;;;;;;;;8.00;8.00;;;;;-146.25;100.00;57879.81;5059847;28;45471;-71
2022/03/20 04:19:24;;;;;;;;;10.33;9.00;;;;;-146.25;100.00;57879.81;5059064;28;45862;-71
2022/03/20 04:21:49;;;;;;;;;11.67;10.33;;;;;-146.25;100.00;57879.81;5059273;28;45329;-71
2022/03/20 04:24:15;;;;;;;;;12.00;10.00;;;;;-146.25;100.00;57879.81;5059790;28;45368;-72
2022/03/20 04:26:41;;;;;;;;;11.50;9.25;;;;;-146.25;100.00;57879.81;5074994;28;45347;-71
2022/03/20 04:29:06;;;;;;;;;10.50;9.00;;;;;-146.25;100.00;57879.81;5059210;28;46039;-70
2022/03/20 04:31:32;;;;;;;;;9.00;9.00;;;;;-146.25;100.00;57879.81;5059232;28;45449;-70
2022/03/20 04:33:58;;;;;;;;;10.00;9.00;;;;;-146.25;100.00;57879.81;5058861;28;45402;-71
2022/03/20 04:36:25;;;;;;;;;9.75;9.00;;;;;-146.25;100.00;57879.81;5058928;28;45389;-71
2022/03/20 04:38:54;;;;;;;;;9.67;9.67;;;;;-146.25;100.00;57879.81;5059055;28;45748;-71
2022/03/20 04:41:19;;;;;;;;;10.00;9.00;;;;;-146.25;100.00;57879.81;5059115;28;45770;-71
2022/03/20 04:43:47;;;;;;;;;9.00;8.67;;;;;-146.25;100.00;57879.81;5059418;28;45449;-71
2022/03/20 04:46:13;;;;;;;;;9.50;7.75;;;;;-146.25;100.00;57879.81;5059260;28;45393;-71
2022/03/20 04:59:35;;;;;;;;;8.25;7.50;;;;;-146.25;100.00;57879.81;5058579;28;45684;-71
2022/03/20 05:02:00;;;;;;;;;12.25;9.00;;;;;-146.25;100.00;57879.81;5058667;28;45844;-71
2022/03/20 05:04:26;;;;;;;;;9.33;7.67;;;;;-146.25;100.00;57879.81;5058425;28;45831;-72
2022/03/20 05:06:52;;;;;;;;;10.00;9.00;;;;;-146.25;100.00;57879.81;5058288;28;45353;-72
2022/03/20 05:14:45;;;;;;;;;9.25;8.00;;;;;-146.25;100.00;57879.81;5058168;28;45397;-71
2022/03/20 05:17:11;;;;;;;;;10.25;8.00;;;;;-146.25;100.00;57879.81;5058159;28;45472;-71
2022/03/20 05:19:40;;;;;;;;;10.50;10.00;;;;;-146.25;100.00;57879.81;5058219;28;46067;-72
2022/03/20 05:22:10;;;;;;;;;5.67;5.33;;;;;-146.25;100.00;57879.81;5058186;28;45480;-70
2022/03/20 05:24:37;;;;;;;;;10.00;9.00;;;;;-146.25;100.00;57879.81;5073741;28;45561;-71
2022/03/20 05:27:04;;;;;;;;;10.75;9.50;;;;;-146.25;100.00;57879.81;5058291;28;45394;-71
2022/03/20 05:29:30;;;;;;;;;6.00;6.00;;;;;-146.25;100.00;57879.81;5058431;28;46259;-71
2022/03/20 05:31:56;;;;;;;;;7.00;7.00;;;;;-146.25;100.00;57879.81;5073170;28;45374;-71
2022/03/20 05:34:22;;;;;;;;;9.00;8.00;;;;;-146.25;100.00;57879.81;5057033;28;45481;-71
2022/03/20 05:36:49;;;;;;;;;6.75;6.00;;;;;-146.25;100.00;57879.81;5058618;28;45516;-71
2022/03/20 05:39:15;;;;;;;;;10.75;9.00;;;;;-146.25;100.00;57879.81;5057968;28;46101;-71
2022/03/20 05:41:47;;;;;;;;;8.75;8.00;;;;;-146.25;100.00;57879.81;5057882;28;45395;-71
2022/03/20 05:44:16;;;;;;;;;9.00;8.00;;;;;-146.25;100.00;57879.81;5058029;28;45441;-71
2022/03/20 05:46:51;;;;;;;;;8.00;7.00;;;;;-146.25;100.00;57879.81;5058171;28;46041;-71
2022/03/20 05:49:18;;;;;;;;;11.00;9.00;;;;;-146.25;100.00;57879.81;5057655;28;45309;-71
2022/03/20 05:51:46;;;;;;;;;8.00;7.75;;;;;-146.25;100.00;57879.81;5056649;28;45316;-71
2022/03/20 05:54:12;;;;;;;;;9.00;8.00;;;;;-146.25;100.00;57879.81;5057925;28;45217;-71
2022/03/20 05:59:23;;;;;;;;;8.25;7.75;;;;;-146.25;100.00;57879.81;5057787;28;45808;-71
2022/03/20 06:01:51;;;;;;;;;9.00;8.25;;;;;-146.25;100.00;57879.81;5056954;28;45516;-71
2022/03/20 06:04:21;;;;;;;;;7.75;7.00;;;;;-146.25;100.00;57879.81;5057413;28;45453;-71
2022/03/20 06:06:50;;;;;;;;;8.00;8.00;;;;;-146.25;100.00;57879.81;5057803;28;45375;-71
2022/03/20 06:09:16;;;;;;;;;6.25;6.25;;;;;-146.25;100.00;57879.81;5055895;28;47022;-71
2022/03/20 06:11:42;;;;;;;;;11.00;9.00;;;;;-146.25;100.00;57879.81;5057341;28;45422;-70
2022/03/20 06:14:08;;;;;;;;;9.25;8.75;;;;;-146.25;100.00;57879.81;5057613;28;45458;-71
2022/03/20 06:16:38;;;;;;;;;10.00;10.00;;;;;-146.25;100.00;57879.81;5055798;28;45526;-71
2022/03/20 06:19:08;;;;;;;;;10.00;9.00;;;;;-146.25;100.00;57879.81;5057190;28;46193;-71
2022/03/20 06:21:34;;;;;;;;;8.75;8.75;;;;;-146.25;100.00;57879.81;5057137;28;45312;-71
2022/03/20 06:24:00;;;;;;;;;8.00;7.00;;;;;-146.25;100.00;57879.81;5057373;28;45196;-71
2022/03/20 06:26:25;;;;;;;;;9.75;9.00;;;;;-146.25;100.00;57879.81;5057856;28;45444;-71
2022/03/20 06:28:52;;;;;;;;;10.50;8.50;;;;;-146.25;100.00;57879.81;5072803;28;45882;-71
2022/03/20 06:31:22;;;;;;;;;8.75;8.50;;;;;-146.25;100.00;57879.81;5057416;28;45572;-71
2022/03/20 06:33:48;;;;;;;;;8.00;7.25;;;;;-146.25;100.00;57879.81;5056891;28;45642;-71
2022/03/20 06:36:14;;;;;;;;;10.00;8.75;;;;;-146.25;100.00;57879.81;5057581;28;45454;-71
2022/03/20 06:38:40;;;;;;;;;7.50;7.50;;;;;-146.25;100.00;57879.81;5057090;28;45475;-71
2022/03/20 06:41:08;;;;;;;;;13.50;9.75;;;;;-146.25;100.00;57879.81;5057049;28;45527;-72
2022/03/20 06:43:38;;;;;;;;;9.25;8.00;;;;;-146.25;100.00;57879.81;5057334;28;45516;-71
2022/03/20 06:46:07;;;;;;;;;9.75;9.00;;;;;-146.25;100.00;57879.81;5057509;28;45482;-71
2022/03/20 06:48:34;;;;;;;;;10.75;9.75;;;;;-146.25;100.00;57879.81;5072304;28;46973;-71
2022/03/20 06:50:59;;;;;;;;;11.75;9.75;;;;;-146.25;100.00;57879.81;5055481;28;45471;-71
2022/03/20 06:53:26;;;;;;;;;16.75;14.00;;;;;-146.25;100.00;57879.81;5057524;28;45461;-71
2022/03/20 06:55:52;;;;;;;;;11.00;10.50;;;;;-146.25;100.00;57879.81;5072954;28;45642;-71
2022/03/20 06:58:20;;;;;;;;;10.50;9.50;;;;;-146.25;100.00;57879.81;5055741;28;46885;-71
2022/03/20 07:00:46;;;;;;;;;13.25;11.25;;;;;-146.25;100.00;57879.81;5056914;28;45518;-71
2022/03/20 07:03:12;;;;;;;;;10.75;10.00;;;;;-146.25;100.00;57879.81;5056360;28;45670;-71
2022/03/20 07:05:38;;;;;;;;;11.50;9.25;;;;;-146.25;100.00;57879.81;5057431;28;45800;-71
2022/03/20 07:08:05;;;;;;;;;12.25;11.50;;;;;-146.25;100.00;57879.81;5056790;28;46207;-71
2022/03/20 07:10:32;;;;;;;;;16.25;14.00;;;;;-146.25;100.00;57879.81;5056896;28;45438;-71
2022/03/20 07:15:45;;;;;;;;;9.00;9.00;;;;;-146.25;100.00;57879.81;5058123;28;45433;-71
2022/03/20 07:18:12;;;;;;;;;12.00;11.00;;;;;-146.25;100.00;57879.81;5060123;28;45980;-71
2022/03/20 07:20:38;;;;;;;;;36.50;29.75;;;;;-146.25;100.00;57879.81;5060079;28;45348;-71
2022/03/20 07:23:09;;;;;;;;;26.00;24.25;;;;;-146.25;100.00;57879.81;5059905;28;45484;-71
2022/03/20 07:31:19;;;;;;;;;12.50;11.50;;;;;-146.25;100.00;57879.81;4997442;28;45526;-71
2022/03/20 07:33:47;;;;;;;;;38.00;33.00;;;;;-146.25;100.00;57879.81;5030197;28;45402;-71
2022/03/20 07:36:13;;;;;;;;;26.00;25.00;;;;;-146.25;100.00;57879.81;5055435;28;45480;-71
2022/03/20 07:38:39;;;;;;;;;15.00;14.00;;;;;-146.25;100.00;57879.81;5055093;28;46884;-71
2022/03/20 07:41:05;;;;;;;;;15.25;13.50;;;;;-146.25;100.00;57879.81;5038207;28;45313;-71
2022/03/20 07:43:30;;;;;;;;;23.25;19.50;;;;;-146.25;100.00;57879.81;5039932;28;45685;-71
2022/03/20 07:45:56;;;;;;;;;34.50;31.25;;;;;-146.25;100.00;57879.81;5040304;28;45303;-70
2022/03/20 07:48:23;;;;;;;;;32.75;29.75;;;;;-146.25;100.00;57879.81;5039321;28;46301;-71
2022/03/20 07:50:50;;;;;;;;;50.00;38.75;;;;;-146.25;100.00;57879.81;5039221;28;45512;-70
2022/03/20 07:53:19;;;;;;;;;60.50;47.50;;;;;-146.25;100.00;57879.81;5039673;28;45244;-71
2022/03/20 07:55:46;;;;;;;;;25.00;20.50;;;;;-146.25;100.00;57879.81;5039851;28;45517;-71
2022/03/20 07:58:12;;;;;;;;;16.50;16.50;;;;;-146.25;100.00;57879.81;5039304;28;46139;-71
2022/03/20 08:00:41;;;;;;;;;24.25;22.00;;;;;-146.25;100.00;57879.81;5039249;28;45316;-71
2022/03/20 08:03:06;;;;;;;;;14.50;13.00;;;;;-146.25;100.00;57879.81;5055279;28;45420;-71
2022/03/20 08:05:32;;;;;;;;;14.00;12.75;;;;;-146.25;100.00;57879.81;5058928;28;45600;-71
2022/03/20 08:08:00;;;;;;;;;14.75;12.50;;;;;-146.25;100.00;57879.81;5059653;28;45435;-72
2022/03/20 08:10:26;;;;;;;;;15.75;15.50;;;;;-146.25;100.00;57879.81;5059617;28;45584;-71
2022/03/20 08:12:52;;;;;;;;;20.00;18.50;;;;;-146.25;100.00;57879.81;5059300;28;45251;-71
2022/03/20 08:15:17;;;;;;;;;25.25;22.50;;;;;-146.25;100.00;57879.81;5059540;28;45362;-71
2022/03/20 08:17:45;;;;;;;;;18.00;16.50;;;;;-146.25;100.00;57879.81;5058974;28;45527;-71
2022/03/20 08:20:11;;;;;;;;;21.50;21.00;;;;;-146.25;100.00;57879.81;5058827;28;45414;-71
2022/03/20 08:22:37;;;;;;;;;32.75;28.00;;;;;-146.25;100.00;57879.81;5059350;28;45362;-71
2022/03/20 08:25:05;;;;;;;;;18.00;15.75;;;;;-146.25;100.00;57879.81;5059290;28;45354;-71
2022/03/20 08:27:31;;;;;;;;;17.50;15.50;;;;;-146.25;100.00;57879.81;5058168;28;45989;-71
2022/03/20 08:29:57;;;;;;;;;13.00;11.00;;;;;-146.25;100.00;57879.81;5058782;28;45433;-71
2022/03/20 08:32:25;;;;;;;;;11.00;9.25;;;;;-146.25;100.00;57879.81;5059187;28;45256;-71
2022/03/20 08:34:52;;;;;;;;;11.50;10.50;;;;;-146.25;100.00;57879.81;5074870;27;45596;-71
2022/03/20 08:37:17;;;;;;;;;19.00;15.75;;;;;-146.25;100.00;57879.81;5058897;28;46083;-71
2022/03/20 08:39:43;;;;;;;;;11.00;10.75;;;;;-146.25;100.00;57879.81;5058450;28;45936;-71
2022/03/20 08:42:08;;;;;;;;;14.25;12.50;;;;;-146.25;100.00;57879.81;5058810;28;45541;-71
2022/03/20 08:44:34;;;;;;;;;14.25;12.75;;;;;-146.25;100.00;57879.81;5058825;28;45378;-71
2022/03/20 08:47:00;;;;;;;;;14.00;13.25;;;;;-146.25;100.00;57879.81;5059072;28;46175;-71
2022/03/20 08:49:26;;;;;;;;;16.00;14.00;;;;;-146.25;100.00;57879.81;5058475;28;45315;-71
2022/03/20 08:51:51;;;;;;;;;14.00;13.00;;;;;-146.25;100.00;57879.81;5058660;28;45340;-71
2022/03/20 08:54:17;;;;;;;;;15.50;12.25;;;;;-146.25;100.00;57879.81;5058943;28;45555;-71
2022/03/20 08:56:42;;;;;;;;;11.25;11.00;;;;;-146.25;100.00;57879.81;5058519;28;45593;-71
2022/03/20 08:59:08;;;;;;;;;15.50;13.00;;;;;-146.25;100.00;57879.81;5058633;28;45407;-71
2022/03/20 09:01:33;;;;;;;;;13.75;13.50;;;;;-146.25;100.00;57879.81;5058970;28;45464;-71
2022/03/20 09:03:59;;;;;;;;;14.75;13.50;;;;;-146.25;100.00;57879.81;5059005;28;45398;-71
2022/03/20 09:06:25;;;;;;;;;10.25;9.00;;;;;-146.25;100.00;57879.81;5058003;28;46290;-71
2022/03/20 09:08:51;;;;;;;;;11.00;10.00;;;;;-146.25;100.00;57879.81;5074077;28;45629;-71
2022/03/20 09:11:18;;;;;;;;;11.75;10.50;;;;;-146.25;100.00;57879.81;5058400;28;45371;-71
2022/03/20 09:13:44;;;;;;;;;11.67;11.33;;;;;-146.25;100.00;57879.81;5058486;28;45247;-71
2022/03/20 09:19:00;;;;;;;;;12.75;12.00;;;;;-146.25;100.00;57879.81;5058005;28;45685;-71
2022/03/20 09:21:27;;;;;;;;;14.75;13.50;;;;;-146.25;100.00;57879.81;5056656;28;45442;-71
2022/03/20 09:23:53;;;;;;;;;12.75;12.00;;;;;-146.25;100.00;57879.81;5058400;28;45295;-71
2022/03/20 09:26:19;;;;;;;;;14.00;13.00;;;;;-146.25;100.00;57879.81;5057857;28;45366;-71
2022/03/20 09:28:46;;;;;;;;;14.50;11.75;;;;;-146.25;100.00;57879.81;5057982;28;45494;-71
2022/03/20 09:31:13;;;;;;;;;8.50;7.75;;;;;-146.25;100.00;57879.81;5058339;28;45240;-72
2022/03/20 09:33:39;;;;;;;;;12.33;10.67;;;;;-146.25;100.00;57879.81;5058278;28;45596;-71
2022/03/20 09:36:06;;;;;;;;;17.25;15.25;;;;;-146.25;100.00;57879.81;5058218;28;45527;-71
2022/03/20 09:38:32;;;;;;;;;11.67;10.67;;;;;-146.25;100.00;57879.81;5057069;28;45323;-71
2022/03/20 09:41:03;;;;;;;;;14.00;13.33;;;;;-146.25;100.00;57879.81;5057472;28;45502;-71
2022/03/20 09:43:31;;;;;;;;;12.67;10.33;;;;;-146.25;100.00;57879.81;5057694;28;45313;-71
2022/03/20 09:45:57;;;;;;;;;11.00;8.67;;;;;-146.25;100.00;57879.81;5057774;28;45387;-71
2022/03/20 09:48:22;;;;;;;;;13.00;12.33;;;;;-146.25;100.00;57879.81;5056305;28;45431;-71
2022/03/20 09:50:49;;;;;;;;;10.33;9.67;;;;;-146.25;100.00;57879.81;5057706;28;45622;-71
2022/03/20 09:53:15;;;;;;;;;10.33;9.33;;;;;-146.25;100.00;57879.81;5058008;28;45409;-71
2022/03/20 09:55:40;;;;;;;;;12.33;12.33;;;;;-146.25;100.00;57879.81;5072957;28;47719;-71
2022/03/20 09:58:06;;;;;;;;;13.00;13.00;;;;;-146.25;100.00;57879.81;5056724;28;45327;-71
2022/03/20 10:00:32;;;;;;;;;13.00;12.33;;;;;-146.25;100.00;57879.81;5057882;28;45433;-71
2022/03/20 10:02:58;;;;;;;;;7.00;6.67;;;;;-146.25;100.00;57879.81;5056471;28;45778;-72
2022/03/20 10:05:26;;;;;;;;;14.00;11.67;;;;;-146.25;100.00;57879.81;5057337;28;46293;-71
2022/03/20 10:07:51;;;;;;;;;13.00;12.00;;;;;-146.25;100.00;57879.81;5057466;28;45579;-71
2022/03/20 10:10:22;;;;;;;;;9.33;8.67;;;;;-146.25;100.00;57879.81;5057201;28;45566;-71
2022/03/20 10:12:52;;;;;;;;;14.00;10.67;;;;;-146.25;100.00;57879.81;5057543;28;45403;-71
2022/03/20 10:15:30;;;;;;;;;8.33;8.00;;;;;-146.25;100.00;57879.81;5057001;28;46050;-71
2022/03/20 10:18:20;;;;;;;;;11.33;10.00;;;;;-146.25;100.00;57879.81;5056546;28;47021;-71
2022/03/20 10:20:57;;;;;;;;;9.67;9.67;;;;;-146.25;100.00;57879.81;5057120;28;45485;-71
2022/03/20 10:23:39;;;;;;;;;8.00;7.00;;;;;-146.25;100.00;57879.81;5057567;28;45256;-71
2022/03/20 10:26:10;;;;;;;;;14.33;13.33;;;;;-146.25;100.00;57879.81;5057392;28;46072;-71
2022/03/20 10:28:43;;;;;;;;;8.00;7.00;;;;;-146.25;100.00;57879.81;5057263;28;45308;-71
2022/03/20 10:31:12;;;;;;;;;6.33;5.67;;;;;-146.25;100.00;57879.81;5057614;28;45620;-71
2022/03/20 10:33:40;;;;;;;;;9.00;8.00;;;;;-146.25;100.00;57879.81;5057744;28;45471;-71
2022/03/20 10:36:10;;;;;;;;;10.00;9.00;;;;;-146.25;100.00;57879.81;5057224;28;46037;-71
2022/03/20 10:38:36;;;;;;;;;8.00;8.00;;;;;-146.25;100.00;57879.81;5057100;28;45576;-71
2022/03/20 10:41:34;;;;;;;;;10.33;9.00;;;;;-146.25;100.00;57879.81;5056557;28;45173;-72
2022/03/20 10:44:01;;;;;;;;;9.00;9.00;;;;;-146.25;100.00;57879.81;5057282;28;45222;-71
2022/03/20 10:46:31;;;;;;;;;10.00;10.00;;;;;-146.25;100.00;57879.81;5056785;28;46349;-71
2022/03/20 10:49:00;;;;;;;;;12.00;10.33;;;;;-146.25;100.00;57879.81;5068322;28;45598;-72
2022/03/20 10:51:39;;;;;;;;;11.00;9.33;;;;;-146.25;100.00;57879.81;5040071;28;45509;-72
2022/03/20 10:54:15;;;;;;;;;6.33;6.33;;;;;-146.25;100.00;57879.81;5055923;28;45182;-71
2022/03/20 10:56:58;;;;;;;;;9.00;9.00;;;;;-146.25;100.00;57879.81;5040595;28;45304;-71
2022/03/20 10:59:25;;;;;;;;;10.33;8.33;;;;;-146.25;100.00;57879.81;5040360;28;45358;-71
2022/03/20 11:01:52;;;;;;;;;8.00;8.00;;;;;-146.25;100.00;57879.81;5038980;28;45579;-72
2022/03/20 11:04:21;;;;;;;;;8.33;8.33;;;;;-146.25;100.00;57879.81;5056007;28;45344;-73
2022/03/20 11:06:48;;;;;;;;;9.67;8.67;;;;;-146.25;100.00;57879.81;5058522;28;46662;-71
2022/03/20 11:09:15;;;;;;;;;9.00;7.33;;;;;-146.25;100.00;57879.81;5060008;28;45481;-71
2022/03/20 11:11:47;;;;;;;;;11.33;10.00;;;;;-146.25;100.00;57879.81;5058633;28;45262;-71
2022/03/20 11:14:15;;;;;;;;;10.00;10.00;;;;;-146.25;100.00;57879.81;5058281;28;46095;-72
2022/03/20 11:16:42;;;;;;;;;9.00;7.00;;;;;-146.25;100.00;57879.81;5075101;28;46894;-72
2022/03/20 11:19:13;;;;;;;;;10.00;7.67;;;;;-146.25;100.00;57879.81;5058625;28;45391;-72
2022/03/20 11:21:45;;;;;;;;;7.00;7.00;;;;;-146.25;100.00;57879.81;5059903;28;45377;-71
2022/03/20 11:24:11;;;;;;;;;13.00;8.67;;;;;-146.25;100.00;57879.81;5059974;28;45462;-73
2022/03/20 11:26:40;;;;;;;;;12.67;12.67;;;;;-146.25;100.00;57879.81;5059079;28;46312;-72
2022/03/20 11:29:08;;;;;;;;;12.67;11.33;;;;;-146.25;100.00;57879.81;5059149;28;45220;-73
2022/03/20 11:31:36;;;;;;;;;6.33;6.00;;;;;-146.25;100.00;57879.81;5058821;28;45457;-73
2022/03/20 11:34:06;;;;;;;;;11.67;11.33;;;;;-146.25;100.00;57879.81;5075209;28;45409;-73
2022/03/20 11:37:08;;;;;;;;;8.33;8.00;;;;;-146.25;100.00;57879.81;5070730;27;45470;-73
2022/03/20 11:39:39;;;;;;;;;12.67;11.67;;;;;-146.25;100.00;57879.81;5055109;28;45374;-73